»·PEaware :: C-FCVV CYCG-CYYC

C-FCVV :: CYCG-CYYC

FLIGHT INFORMATION

Flight Status: Arrived
Operator: Privately registered:
Canada
More flights under this callsign
Pilot: Jessica F. (17029)
Aircraft: BEECH AIRCRAFT SUPER KING AIR COMMUTER
(BE20)
More flights by this aircraft type
Origin: CYCG Castlegar
Canada
Destination: CYYC Calgary Intl
Canada
More flights between these airports :: More routes between these airports
Route: MENBO NORET VESGA4
File this flight plan on PilotEdge
Remarks: CYCG MENBO NORET VESGA4.35R CYYC N200BC 15500ft 20171217T145000Z - FSEconomy Passenger Charter
Altitude:
(Current/Filed)
15,500ft
Speed:
(Current/Filed)
270kts
Departed: 17-Dec-17 08:04 AM
Arrived: 17-Dec-17 08:52 AM
Distance/Time
Traveled:
177nm/0:48
Distance/Time
To Go:
Arrived

Flight Plot

Page will automatically refresh every two minutes.

Flight plan parsing failed; only flown route is shown


Map Options




Map Legend


Flown Route
Filed Route
Departure Airport
Arrival Airport
Navaid (VOR, NDB)
Fix

Horizontal Profiles

Position Reports

Time Latitude Longitude Heading Altitude Ground
Speed
17-Dec-17 07:59 49.289344 -117.630458 349 1597ft 0kts
17-Dec-17 08:00 49.289344 -117.630458 349 1597ft 0kts
17-Dec-17 08:01 49.289344 -117.630458 349 1597ft 0kts
17-Dec-17 08:02 49.289344 -117.630458 349 1597ft 0kts
17-Dec-17 08:03 49.289344 -117.630458 349 1597ft 0kts
17-Dec-17 08:04 49.289344 -117.630458 349 1597ft 0kts
17-Dec-17 08:05 49.289344 -117.630458 349 1597ft 0kts
17-Dec-17 08:06 49.289344 -117.630458 349 1597ft 0kts
17-Dec-17 08:07 49.289344 -117.630458 349 1597ft 0kts
17-Dec-17 08:08 49.289344 -117.630458 349 1597ft 0kts
17-Dec-17 08:09 49.289344 -117.630458 349 1597ft 0kts
17-Dec-17 08:10 49.312219 -117.636961 344 2474ft 152kts
17-Dec-17 08:11 49.345643 -117.583382 58 3919ft 210kts
17-Dec-17 08:12 49.383900 -117.516508 43 5904ft 209kts
17-Dec-17 08:13 49.425985 -117.457473 38 7898ft 202kts
17-Dec-17 08:14 49.466925 -117.402448 37 9885ft 192kts
17-Dec-17 08:15 49.505368 -117.349607 29 11879ft 180kts
17-Dec-17 08:16 49.540924 -117.302478 27 13803ft 166kts
17-Dec-17 08:17 49.574164 -117.258131 25 15453ft 168kts
17-Dec-17 08:18 49.616922 -117.201380 30 15471ft 226kts
17-Dec-17 08:19 49.665709 -117.134898 31 15466ft 240kts
17-Dec-17 08:20 49.716056 -117.066403 31 15465ft 242kts
17-Dec-17 08:21 49.766706 -116.997457 31 15465ft 242kts
17-Dec-17 08:22 49.818282 -116.927236 32 15468ft 261kts
17-Dec-17 08:23 49.873853 -116.851110 32 15466ft 272kts
17-Dec-17 08:24 49.930684 -116.773012 32 15466ft 274kts
17-Dec-17 08:25 49.987952 -116.694408 33 15469ft 276kts
17-Dec-17 08:26 50.044614 -116.616032 34 15462ft 272kts
17-Dec-17 08:27 50.099862 -116.539076 31 15869ft 268kts
17-Dec-17 08:28 50.155219 -116.462315 32 15883ft 275kts
17-Dec-17 08:29 50.212359 -116.382538 32 15883ft 277kts
17-Dec-17 08:30 50.268430 -116.304082 33 15877ft 277kts
17-Dec-17 08:31 50.325758 -116.223572 33 15876ft 277kts
17-Dec-17 08:32 50.382545 -116.142574 42 15857ft 284kts
17-Dec-17 08:33 50.412352 -116.022413 63 15828ft 300kts
17-Dec-17 08:34 50.441964 -115.900931 63 15797ft 299kts
17-Dec-17 08:35 50.468510 -115.781139 63 15797ft 299kts
17-Dec-17 08:36 50.490288 -115.681239 63 15798ft 300kts
17-Dec-17 08:37 50.520909 -115.539746 63 15799ft 300kts
17-Dec-17 08:38 50.543462 -115.435569 65 15801ft 306kts
17-Dec-17 08:39 50.573862 -115.292633 66 15794ft 311kts
17-Dec-17 08:40 50.600767 -115.165495 66 15794ft 311kts
17-Dec-17 08:41 50.623604 -115.057329 66 15491ft 321kts
17-Dec-17 08:42 50.652785 -114.921340 71 14125ft 324kts
17-Dec-17 08:43 50.683171 -114.773384 71 13793ft 289kts
17-Dec-17 08:44 50.707917 -114.657521 55 13763ft 287kts
17-Dec-17 08:45 50.751991 -114.582756 36 13391ft 299kts
17-Dec-17 08:46 50.812076 -114.487388 37 12017ft 310kts
17-Dec-17 08:47 50.871215 -114.397593 43 10704ft 309kts
17-Dec-17 08:48 50.930246 -114.310876 27 9273ft 279kts
17-Dec-17 08:49 50.981871 -114.270094 25 9625ft 161kts
17-Dec-17 08:50 51.024438 -114.235818 22 8268ft 183kts
17-Dec-17 08:51 51.066579 -114.202190 19 7731ft 164kts
17-Dec-17 08:52 51.098246 -114.241685 295 7144ft 163kts
17-Dec-17 08:53 51.135586 -114.275940 353 5894ft 173kts
17-Dec-17 08:54 51.174832 -114.239376 56 5113ft 161kts
17-Dec-17 08:55 51.175212 -114.168675 121 5123ft 165kts
17-Dec-17 08:56 51.151449 -114.104830 122 4538ft 170kts
17-Dec-17 08:57 51.133428 -114.055088 124 3923ft 127kts
17-Dec-17 08:58 51.121823 -114.024282 171 3561ft 22kts
17-Dec-17 08:59 51.119464 -114.024063 175 3561ft 0kts
17-Dec-17 09:00 51.119260 -114.023696 9 3561ft 0kts
17-Dec-17 09:01 51.119260 -114.023696 9 3561ft 0kts
17-Dec-17 09:02 51.119260 -114.023696 9 3561ft 0kts
17-Dec-17 09:03 51.119260 -114.023696 9 3561ft 0kts
17-Dec-17 09:04 51.119260 -114.023696 9 3561ft 0kts
17-Dec-17 09:05 51.119260 -114.023696 9 3561ft 0kts
17-Dec-17 09:06 51.119260 -114.023696 9 3561ft 0kts
17-Dec-17 09:07 51.119260 -114.023696 9 3561ft 0kts

Navigation Log

Ident Type
Flight plan parsing failed, navigation log unavailable